Airport View

Enter AWOS ICAO identifier for current METAR.

ex. KFNL

KARW 261220Z AUTO 32005KT 7SM CLR 26/21 A3011 RMK AO2

26 Jun 2019 12:18

Frequency: 119.675

Phone: 843-524-1000

Other Area AWOS: KNBC - KHXD - KRBW - KSAV

TAF KNBC 2609/2709 32005KT 9999 FEW200 QNH3007INS TEMPO 2616/2622 01005KT FEW030 SCT200 BECMG 2623/2701 VRB05KT 9999 FEW030 QNH3006INS T32/2618Z T26/2709Z